KFVE 260753Z AUTO 36007KT 10SM CLR 13/06 A2959 RMK AO2 SLP014 T01280061